Time;durP1;ratioP1;P1;durP2;ratioP2;P2;SDS_P1;SDS_P2;PMS_P1;PMS_P2;Temp;Humidity;BMP_temperature;BMP_pressure;BME280_temperature;BME280_humidity;BME280_pressure;Samples;Min_cycle;Max_cycle;Signal;HPM_P1;HPM_P2
2023/02/06 00:00:50;;;;;;;23.88;17.65;;;;;;;2.68;77.89;98624.16;5074398;28;20043;-83
2023/02/06 00:03:19;;;;;;;26.90;18.27;;;;;;;2.74;78.16;98630.75;5073767;28;20048;-81
2023/02/06 00:05:54;;;;;;;26.50;18.75;;;;;;;2.80;78.48;98626.97;5073514;28;20064;-81
2023/02/06 00:08:22;;;;;;;27.63;19.80;;;;;;;2.83;77.70;98627.66;5073156;28;20144;-82
2023/02/06 00:10:51;;;;;;;24.00;17.02;;;;;;;2.83;78.33;98625.09;5073028;28;20055;-84
2023/02/06 00:13:19;;;;;;;28.70;20.40;;;;;;;2.83;77.86;98621.69;5073434;28;20052;-81
2023/02/06 00:15:46;;;;;;;23.20;17.77;;;;;;;2.82;78.16;98620.00;5073262;28;20084;-81
2023/02/06 00:18:14;;;;;;;28.33;19.25;;;;;;;2.84;77.99;98628.47;5073210;28;20056;-82
2023/02/06 00:20:41;;;;;;;23.95;17.50;;;;;;;2.83;77.36;98632.81;5073943;28;20054;-83
2023/02/06 00:23:09;;;;;;;25.77;18.63;;;;;;;2.80;77.59;98637.28;5073334;28;20478;-81
2023/02/06 00:25:37;;;;;;;26.02;17.65;;;;;;;2.73;77.04;98641.94;5073146;28;20056;-83
2023/02/06 00:28:06;;;;;;;23.02;16.98;;;;;;;2.67;76.88;98642.31;5071904;28;20052;-82
2023/02/06 00:30:33;;;;;;;23.75;18.08;;;;;;;2.65;77.30;98639.78;5073614;28;20234;-82
2023/02/06 00:33:01;;;;;;;26.15;17.67;;;;;;;2.63;77.11;98640.78;5073464;28;20076;-82
2023/02/06 00:35:29;;;;;;;24.88;17.30;;;;;;;2.56;76.75;98635.13;5072705;28;20056;-82
2023/02/06 00:37:58;;;;;;;25.48;17.20;;;;;;;2.54;77.28;98642.13;5095851;22;20060;-78
2023/02/06 00:40:26;;;;;;;26.25;18.83;;;;;;;2.56;77.80;98642.88;5094421;28;20130;-77
2023/02/06 00:42:53;;;;;;;22.65;16.67;;;;;;;2.62;78.94;98650.28;5094449;28;20121;-77
2023/02/06 00:45:22;;;;;;;24.35;17.40;;;;;;;2.67;78.74;98637.16;5094144;28;20501;-77
2023/02/06 00:47:50;;;;;;;23.13;17.40;;;;;;;2.73;78.31;98641.94;5092773;28;20048;-77
2023/02/06 00:50:18;;;;;;;25.15;18.10;;;;;;;2.78;78.38;98639.97;5093005;28;20078;-78
2023/02/06 00:52:45;;;;;;;22.00;16.30;;;;;;;2.86;79.37;98648.13;5093684;28;20105;-77
2023/02/06 00:55:13;;;;;;;24.17;17.80;;;;;;;2.92;79.41;98656.44;5094753;28;20055;-77
2023/02/06 00:57:40;;;;;;;21.42;16.15;;;;;;;2.93;78.86;98643.47;5113633;28;20103;-77
2023/02/06 01:00:09;;;;;;;22.45;16.85;;;;;;;2.93;79.25;98640.03;5115012;28;20054;-77
2023/02/06 01:02:38;;;;;;;20.05;15.77;;;;;;;2.94;79.00;98645.13;5115586;28;20052;-77
2023/02/06 01:05:06;;;;;;;22.60;17.00;;;;;;;2.96;79.16;98632.16;5114218;28;20055;-77
2023/02/06 01:07:37;;;;;;;22.75;15.95;;;;;;;2.94;77.97;98634.81;5096349;28;20050;-77
2023/02/06 01:10:05;;;;;;;26.33;17.35;;;;;;;2.89;76.59;98627.34;5093791;28;20050;-77
2023/02/06 01:12:33;;;;;;;22.33;15.63;;;;;;;2.80;75.10;98625.25;5093348;28;20442;-77
2023/02/06 01:15:01;;;;;;;20.33;14.57;;;;;;;2.71;74.90;98628.31;5093237;28;20044;-77
2023/02/06 01:17:30;;;;;;;20.67;15.93;;;;;;;2.62;74.94;98618.50;5093110;28;20070;-77
2023/02/06 01:20:00;;;;;;;21.88;15.10;;;;;;;2.57;74.44;98616.19;5092697;28;20480;-77
2023/02/06 01:22:27;;;;;;;22.13;14.80;;;;;;;2.53;74.36;98611.28;5093606;28;20492;-77
2023/02/06 01:24:55;;;;;;;21.48;14.55;;;;;;;2.45;74.35;98612.53;5093585;28;20089;-77
2023/02/06 01:27:22;;;;;;;20.77;15.77;;;;;;;2.41;74.50;98607.63;5093606;28;20055;-77
2023/02/06 01:29:50;;;;;;;19.50;15.10;;;;;;;2.36;74.49;98605.28;5092682;28;20040;-77
2023/02/06 01:32:18;;;;;;;23.08;16.05;;;;;;;2.36;74.63;98601.84;5093495;28;20048;-77
2023/02/06 01:34:46;;;;;;;21.67;15.48;;;;;;;2.33;74.71;98615.72;5092648;28;20498;-77
2023/02/06 01:37:15;;;;;;;23.45;15.27;;;;;;;2.34;75.49;98603.69;5094901;28;20089;-77
2023/02/06 01:39:43;;;;;;;21.48;15.70;;;;;;;2.35;75.08;98608.75;5095612;28;20051;-77
2023/02/06 01:42:12;;;;;;;22.65;15.30;;;;;;;2.42;76.14;98607.50;5096349;28;20043;-77
2023/02/06 01:44:39;;;;;;;23.95;16.35;;;;;;;2.48;76.66;98617.50;5096887;28;20103;-77
2023/02/06 01:47:10;;;;;;;22.52;16.27;;;;;;;2.54;77.44;98618.94;5096805;28;20577;-77
2023/02/06 01:49:41;;;;;;;23.48;17.60;;;;;;;2.53;76.81;98614.69;5096553;28;20052;-78
2023/02/06 01:52:15;;;;;;;20.20;15.55;;;;;;;2.46;76.35;98615.91;5097159;28;20044;-78
2023/02/06 01:54:48;;;;;;;23.40;16.83;;;;;;;2.40;77.89;98609.34;5096795;28;20048;-77
2023/02/06 01:57:18;;;;;;;21.08;14.55;;;;;;;2.39;77.99;98612.84;5096760;28;20048;-77
2023/02/06 01:59:51;;;;;;;18.33;14.90;;;;;;;2.36;77.83;98613.00;5096133;28;20051;-77
2023/02/06 02:02:19;;;;;;;21.33;15.30;;;;;;;2.33;77.18;98612.34;5097191;28;20044;-77
2023/02/06 02:04:48;;;;;;;19.85;15.05;;;;;;;2.31;77.56;98614.97;5097119;28;20048;-77
2023/02/06 02:07:19;;;;;;;24.38;16.63;;;;;;;2.32;77.17;98608.94;5078385;28;20048;-77
2023/02/06 02:09:48;;;;;;;20.73;16.67;;;;;;;2.29;76.75;98609.06;5095728;28;20142;-77
2023/02/06 02:12:16;;;;;;;19.23;15.60;;;;;;;2.28;77.33;98609.19;5096502;28;20044;-77
2023/02/06 02:14:46;;;;;;;20.40;15.43;;;;;;;2.30;77.32;98603.03;5109976;28;20048;-77
2023/02/06 02:17:29;;;;;;;18.55;14.73;;;;;;;2.32;79.02;98606.34;5119032;28;20054;-78
2023/02/06 02:20:32;;;;;;;20.95;17.02;;;;;;;2.37;79.63;98604.34;5100791;28;20060;-77
2023/02/06 02:23:07;;;;;;;20.38;15.73;;;;;;;2.36;78.10;98613.00;5083003;28;20051;-77
2023/02/06 02:26:32;;;;;;;22.20;16.10;;;;;;;2.39;80.28;98612.84;5098611;28;20134;-77
2023/02/06 02:29:31;;;;;;;20.77;15.70;;;;;;;2.44;79.70;98623.72;5035662;28;20049;-77
2023/02/06 02:32:29;;;;;;;21.23;15.65;;;;;;;2.41;77.55;98628.22;5034700;28;20089;-77
2023/02/06 02:35:23;;;;;;;20.00;14.18;;;;;;;2.35;76.90;98625.97;5095453;28;20056;-77
2023/02/06 02:38:01;;;;;;;20.83;15.20;;;;;;;2.29;76.76;98627.09;5095478;28;20165;-77
2023/02/06 02:40:38;;;;;;;20.83;15.40;;;;;;;2.21;76.29;98624.94;5096026;28;20141;-77
2023/02/06 02:43:13;;;;;;;22.80;15.75;;;;;;;2.18;77.09;98631.97;5096183;28;20055;-77
2023/02/06 02:45:46;;;;;;;18.48;14.90;;;;;;;2.18;77.10;98629.41;5096345;28;20040;-77
2023/02/06 02:48:18;;;;;;;21.77;15.52;;;;;;;2.19;77.14;98636.25;5094612;28;20472;-77
2023/02/06 02:50:47;;;;;;;23.15;16.75;;;;;;;2.14;77.01;98639.03;5094330;28;20135;-77
2023/02/06 02:53:15;;;;;;;21.38;16.50;;;;;;;2.10;76.84;98637.53;5094947;28;20048;-77
2023/02/06 02:55:43;;;;;;;20.73;15.50;;;;;;;2.03;76.27;98631.88;5095230;28;20055;-78
2023/02/06 02:58:13;;;;;;;23.85;17.00;;;;;;;2.03;77.62;98631.03;5094133;28;20052;-77
2023/02/06 03:00:44;;;;;;;21.08;16.02;;;;;;;2.05;78.03;98639.50;5094276;28;20508;-77
2023/02/06 03:03:15;;;;;;;22.17;15.95;;;;;;;2.06;79.08;98628.31;5095788;28;20117;-77
2023/02/06 03:05:52;;;;;;;23.15;15.82;;;;;;;2.11;78.49;98626.31;5095446;28;20055;-78
2023/02/06 03:08:28;;;;;;;20.83;15.15;;;;;;;2.17;79.92;98625.19;5094482;28;20581;-77
2023/02/06 03:11:06;;;;;;;20.48;14.77;;;;;;;2.18;77.70;98624.25;5095413;28;20058;-77
2023/02/06 03:13:38;;;;;;;52.10;27.30;;;;;;;2.08;76.41;98629.06;5095019;28;20054;-77
2023/02/06 03:16:12;;;;;;;40.13;22.98;;;;;;;2.01;76.40;98632.84;5095028;28;20116;-77
2023/02/06 03:18:43;;;;;;;35.60;22.50;;;;;;;2.00;76.99;98626.88;5094348;28;20154;-77
2023/02/06 03:21:16;;;;;;;31.95;18.80;;;;;;;2.06;78.77;98621.41;5093708;28;20044;-77
2023/02/06 03:23:45;;;;;;;;;;;;;;;2.11;78.07;98622.91;5095117;28;20139;-78
2023/02/06 03:26:15;;;;;;;20.17;13.30;;;;;;;2.09;76.89;98625.56;5095055;28;19920;-77
2023/02/06 03:28:47;;;;;;;20.88;14.70;;;;;;;2.06;75.96;98631.72;5094112;28;20047;-77
2023/02/06 03:31:19;;;;;;;21.27;13.90;;;;;;;1.99;75.68;98627.78;5094685;28;20138;-77
2023/02/06 03:33:50;;;;;;;21.05;14.07;;;;;;;1.94;75.61;98627.16;5095014;28;20051;-77
2023/02/06 03:36:19;;;;;;;19.50;13.13;;;;;;;1.88;75.41;98630.06;5094866;28;20130;-77
2023/02/06 03:38:51;;;;;;;18.70;13.85;;;;;;;1.82;74.51;98632.94;5093980;28;20071;-77
2023/02/06 03:41:22;;;;;;;18.05;12.82;;;;;;;1.77;74.66;98635.75;5094401;28;20058;-77
2023/02/06 03:43:52;;;;;;;20.30;13.77;;;;;;;1.74;74.48;98635.06;5095013;28;20050;-77
2023/02/06 03:46:21;;;;;;;17.83;13.25;;;;;;;1.75;75.19;98629.84;5094397;28;20279;-77
2023/02/06 03:48:53;;;;;;;18.45;12.95;;;;;;;1.75;74.65;98636.72;5093608;28;20055;-77
2023/02/06 03:51:29;;;;;;;17.15;13.10;;;;;;;1.68;73.73;98630.22;5094981;28;20086;-78
2023/02/06 03:54:02;;;;;;;18.33;12.45;;;;;;;1.60;73.61;98622.91;5094566;28;20052;-77
2023/02/06 03:56:35;;;;;;;18.30;12.60;;;;;;;1.51;73.55;98621.63;5094375;28;20052;-77
2023/02/06 03:59:02;;;;;;;19.63;12.32;;;;;;;1.46;73.46;98623.56;5093220;28;20051;-77
2023/02/06 04:01:30;;;;;;;18.48;12.93;;;;;;;1.38;73.72;98615.41;5094322;28;20074;-77
2023/02/06 04:03:58;;;;;;;17.95;12.18;;;;;;;1.31;73.22;98611.44;5094341;28;20468;-77
2023/02/06 04:06:27;;;;;;;20.83;13.82;;;;;;;1.22;73.52;98598.16;5094060;28;20062;-77
2023/02/06 04:08:55;;;;;;;16.73;11.73;;;;;;;1.18;73.85;98600.91;5093101;28;20067;-77
2023/02/06 04:11:22;;;;;;;20.50;14.48;;;;;;;1.18;74.56;98606.91;5094711;28;20052;-77
2023/02/06 04:13:50;;;;;;;20.52;12.75;;;;;;;1.23;75.16;98612.66;5094291;28;20144;-77
2023/02/06 04:16:17;;;;;;;24.42;15.02;;;;;;;1.27;75.08;98617.63;5094360;28;20130;-77
2023/02/06 04:18:45;;;;;;;19.70;13.23;;;;;;;1.28;75.68;98616.75;5092966;28;20079;-77
2023/02/06 04:21:12;;;;;;;22.40;13.75;;;;;;;1.28;75.20;98619.31;5094040;28;20050;-77
2023/02/06 04:23:41;;;;;;;22.20;14.48;;;;;;;1.28;75.53;98616.75;5093980;28;20040;-77
2023/02/06 04:26:09;;;;;;;20.60;14.52;;;;;;;1.28;75.35;98614.19;5094211;28;20070;-77
2023/02/06 04:28:36;;;;;;;25.50;14.95;;;;;;;1.29;75.14;98618.41;5093348;28;20083;-77
2023/02/06 04:31:04;;;;;;;24.77;16.02;;;;;;;1.31;76.17;98616.59;5093915;28;20139;-78
2023/02/06 04:33:32;;;;;;;24.10;16.65;;;;;;;1.35;76.79;98620.69;5093991;28;20076;-77
2023/02/06 04:35:59;;;;;;;25.73;18.00;;;;;;;1.37;77.27;98621.44;5093547;28;20052;-77
2023/02/06 04:38:27;;;;;;;29.23;19.52;;;;;;;1.40;77.44;98624.69;5092744;28;20577;-77
2023/02/06 04:41:02;;;;;;;26.15;19.27;;;;;;;1.38;76.83;98620.53;5093565;28;20052;-77
2023/02/06 04:43:29;;;;;;;28.30;20.20;;;;;;;1.36;77.11;98623.19;5093991;28;20047;-77
2023/02/06 04:45:57;;;;;;;33.03;21.75;;;;;;;1.31;75.85;98627.72;5093831;28;20498;-77
2023/02/06 04:48:25;;;;;;;32.47;20.52;;;;;;;1.22;75.53;98628.16;5092992;28;20438;-78
2023/02/06 04:50:52;;;;;;;30.48;20.38;;;;;;;1.17;75.88;98625.78;5093735;28;20094;-78
2023/02/06 04:53:20;;;;;;;34.60;21.00;;;;;;;1.15;76.05;98622.47;5093817;28;20395;-77
2023/02/06 04:55:48;;;;;;;34.22;22.05;;;;;;;1.15;75.92;98627.59;5094116;28;20078;-78
2023/02/06 04:58:16;;;;;;;34.65;20.95;;;;;;;1.09;75.59;98620.19;5093336;28;20512;-78
2023/02/06 05:00:44;;;;;;;33.63;20.63;;;;;;;1.06;75.43;98625.47;5094697;28;20044;-77
2023/02/06 05:03:12;;;;;;;35.17;21.90;;;;;;;1.01;75.60;98619.72;5114746;28;20109;-78
2023/02/06 05:05:39;;;;;;;35.03;20.88;;;;;;;0.97;75.90;98618.22;5112308;28;20042;-78
2023/02/06 05:08:07;;;;;;;33.25;20.52;;;;;;;0.97;77.23;98615.63;5094625;28;20052;-77
2023/02/06 05:10:34;;;;;;;33.53;19.90;;;;;;;0.98;76.78;98617.28;5095367;28;20056;-77
2023/02/06 05:13:02;;;;;;;34.13;21.23;;;;;;;0.95;75.99;98623.41;5098408;28;20048;-77
2023/02/06 05:15:31;;;;;;;34.00;21.80;;;;;;;0.89;75.88;98625.44;5098152;28;20051;-77
2023/02/06 05:17:58;;;;;;;34.30;20.92;;;;;;;0.82;75.43;98624.88;5096883;28;20086;-77
2023/02/06 05:20:26;;;;;;;40.95;23.25;;;;;;;0.78;76.75;98631.88;5098366;28;20058;-77
2023/02/06 05:22:53;;;;;;;39.22;22.40;;;;;;;0.76;76.46;98628.56;5097746;28;20043;-77
2023/02/06 05:25:21;;;;;;;35.88;21.30;;;;;;;0.74;77.35;98632.09;5097463;28;20444;-77
2023/02/06 05:27:50;;;;;;;35.05;21.55;;;;;;;0.77;77.82;98637.94;5096928;28;20051;-78
2023/02/06 05:30:18;;;;;;;37.50;22.13;;;;;;;0.75;77.03;98634.63;5097421;28;20516;-77
2023/02/06 05:32:46;;;;;;;35.45;21.80;;;;;;;0.73;76.72;98636.41;5097848;28;20148;-77
2023/02/06 05:35:14;;;;;;;32.88;19.48;;;;;;;0.66;76.44;98624.75;5101222;28;20049;-77
2023/02/06 05:37:42;;;;;;;34.90;20.85;;;;;;;0.66;77.64;98618.81;5097476;28;20055;-77
2023/02/06 05:40:11;;;;;;;32.88;19.35;;;;;;;0.69;77.82;98619.47;5097371;28;20052;-77
2023/02/06 05:42:38;;;;;;;36.60;20.83;;;;;;;0.70;77.55;98615.16;5090920;28;20094;-77
2023/02/06 05:45:07;;;;;;;34.08;20.15;;;;;;;0.69;77.07;98624.63;5096845;28;20139;-77
2023/02/06 05:47:34;;;;;;;33.58;20.63;;;;;;;0.69;77.04;98618.66;5093290;28;20429;-77
2023/02/06 05:50:04;;;;;;;31.20;19.25;;;;;;;0.72;77.38;98624.50;5094999;28;20468;-78
2023/02/06 05:52:31;;;;;;;33.42;21.40;;;;;;;0.73;77.37;98605.59;5096694;28;20047;-77
2023/02/06 05:54:59;;;;;;;32.95;20.92;;;;;;;0.70;76.88;98612.59;5097358;28;20055;-77
2023/02/06 05:57:26;;;;;;;31.63;19.98;;;;;;;0.73;78.83;98627.88;5099033;28;20108;-78
2023/02/06 05:59:54;;;;;;;31.20;19.75;;;;;;;0.81;78.85;98638.66;5116171;28;20062;-77
2023/02/06 06:02:22;;;;;;;30.15;19.00;;;;;;;0.80;78.72;98632.66;5106301;28;20108;-78
2023/02/06 06:04:49;;;;;;;31.10;21.20;;;;;;;0.84;78.00;98642.81;5096592;28;20040;-78
2023/02/06 06:07:27;;;;;;;30.88;20.58;;;;;;;0.84;79.82;98637.66;5100608;28;20044;-77
2023/02/06 06:09:55;;;;;;;30.98;19.48;;;;;;;0.87;79.20;98632.38;5096258;28;20131;-78
2023/02/06 06:12:23;;;;;;;28.67;19.35;;;;;;;0.91;78.89;98650.16;5097048;28;20139;-77
2023/02/06 06:14:50;;;;;;;34.90;21.35;;;;;;;0.93;78.56;98647.50;5096910;28;20134;-78
2023/02/06 06:17:18;;;;;;;32.72;19.58;;;;;;;0.91;77.61;98651.88;5096933;28;20131;-80
2023/02/06 06:19:45;;;;;;;33.60;20.83;;;;;;;0.88;77.99;98655.44;5096794;28;20046;-77
2023/02/06 06:22:13;;;;;;;33.33;20.45;;;;;;;0.92;78.94;98653.53;5103767;28;20054;-76
2023/02/06 06:24:42;;;;;;;32.25;20.30;;;;;;;0.92;77.95;98656.97;5099845;28;20040;-77
2023/02/06 06:27:10;;;;;;;30.85;19.90;;;;;;;0.89;78.56;98657.09;5114728;28;20044;-76
2023/02/06 06:29:38;;;;;;;33.17;20.85;;;;;;;1.00;79.72;98665.13;5116093;28;20048;-77
2023/02/06 06:32:06;;;;;;;31.13;20.42;;;;;;;1.06;79.96;98669.16;5115158;28;20067;-77
2023/02/06 06:34:33;;;;;;;31.98;19.63;;;;;;;1.11;80.19;98661.25;5116579;28;20043;-77
2023/02/06 06:37:01;;;;;;;36.42;21.83;;;;;;;1.18;80.84;98655.75;5116556;28;20050;-77
2023/02/06 06:39:29;;;;;;;36.63;22.60;;;;;;;1.23;79.24;98660.69;5131382;22;20434;-83
2023/02/06 06:41:58;;;;;;;32.08;19.20;;;;;;;1.15;77.58;98653.31;5108348;28;20079;-85
2023/02/06 06:44:25;;;;;;;32.08;19.48;;;;;;;1.11;78.46;98643.25;5107407;28;20059;-85
2023/02/06 06:46:53;;;;;;;31.23;19.90;;;;;;;1.09;78.45;98633.03;5107200;28;20252;-83
2023/02/06 06:49:21;;;;;;;29.48;18.27;;;;;;;1.12;79.64;98642.34;5107074;28;20059;-86
2023/02/06 06:51:49;;;;;;;29.55;18.65;;;;;;;1.20;80.33;98630.81;5108672;28;20079;-84
2023/02/06 06:54:18;;;;;;;33.55;19.65;;;;;;;1.30;80.57;98625.22;5107505;28;20059;-85
2023/02/06 06:56:46;;;;;;;28.33;19.08;;;;;;;1.40;81.15;98632.41;5111615;28;20052;-86
2023/02/06 06:59:15;;;;;;;28.98;19.02;;;;;;;1.47;81.71;98632.94;5110430;28;20132;-88
2023/02/06 07:01:43;;;;;;;27.65;18.80;;;;;;;1.55;82.14;98640.28;5111309;28;20067;-88
2023/02/06 07:04:11;;;;;;;29.77;19.45;;;;;;;1.57;81.43;98651.31;5110357;28;20067;-88
2023/02/06 07:06:39;;;;;;;29.05;19.52;;;;;;;1.60;81.28;98653.78;5110593;28;20055;-89
2023/02/06 07:09:06;;;;;;;30.65;20.10;;;;;;;1.63;80.92;98644.13;5110475;28;20080;-87
2023/02/06 07:11:34;;;;;;;29.58;19.40;;;;;;;1.70;81.40;98644.66;5111328;28;20059;-88
2023/02/06 07:14:02;;;;;;;30.30;19.67;;;;;;;1.75;81.70;98647.00;5110939;28;20067;-87
2023/02/06 07:16:32;;;;;;;29.40;19.58;;;;;;;1.71;80.08;98656.66;5109580;28;20048;-85
2023/02/06 07:19:00;;;;;;;26.77;18.75;;;;;;;1.68;79.99;98656.78;5109249;28;20058;-88
2023/02/06 07:21:28;;;;;;;30.10;19.80;;;;;;;1.68;80.34;98655.94;5109687;28;20046;-87
2023/02/06 07:23:56;;;;;;;27.48;18.80;;;;;;;1.67;80.34;98657.69;5109378;28;20048;-90
2023/02/06 07:26:23;;;;;;;28.80;18.63;;;;;;;1.67;80.50;98662.00;5110345;28;20109;-85
2023/02/06 07:28:51;;;;;;;29.95;19.75;;;;;;;1.58;78.64;98646.13;5108914;28;20058;-91
2023/02/06 07:31:19;;;;;;;30.00;18.50;;;;;;;1.51;78.77;98649.03;5110240;28;20055;-90
2023/02/06 07:33:49;;;;;;;30.90;19.05;;;;;;;1.48;78.30;98644.88;5108073;28;20068;-90
2023/02/06 07:36:17;;;;;;;30.02;20.02;;;;;;;1.42;77.73;98645.19;5109596;28;20059;-88
2023/02/06 07:38:45;;;;;;;30.15;18.40;;;;;;;1.37;78.24;98645.41;5109611;28;20058;-88
2023/02/06 07:41:13;;;;;;;29.80;19.65;;;;;;;1.41;79.91;98638.38;5111373;28;20044;-90
2023/02/06 07:43:41;;;;;;;28.52;19.55;;;;;;;1.42;79.06;98637.47;5110440;28;20056;-87
2023/02/06 07:46:08;;;;;;;30.70;19.35;;;;;;;1.41;79.49;98640.97;5110085;28;20484;-89
2023/02/06 07:48:36;;;;;;;30.83;19.73;;;;;;;1.46;80.00;98641.56;5108964;28;20048;-89
2023/02/06 07:51:07;;;;;;;30.38;19.52;;;;;;;1.50;79.14;98637.09;5108559;28;20090;-84
2023/02/06 07:53:36;;;;;;;27.95;18.77;;;;;;;1.48;78.76;98644.88;5107861;28;20052;-88
2023/02/06 07:56:10;;;;;;;31.48;20.15;;;;;;;1.44;77.71;98640.78;5109898;28;20081;-88
2023/02/06 07:58:38;;;;;;;28.60;18.48;;;;;;;1.36;77.29;98650.66;5109823;28;20047;-90
2023/02/06 08:01:07;;;;;;;29.73;18.55;;;;;;;1.33;77.81;98650.78;5110659;28;20048;-86
2023/02/06 08:03:35;;;;;;;28.88;19.35;;;;;;;1.29;77.51;98649.25;5109873;28;20054;-88
2023/02/06 08:06:09;;;;;;;30.58;19.33;;;;;;;1.27;77.50;98651.06;5106888;28;20043;-84
2023/02/06 08:08:37;;;;;;;32.15;19.38;;;;;;;1.32;78.59;98651.69;5109115;28;20395;-86
2023/02/06 08:11:06;;;;;;;29.98;19.95;;;;;;;1.39;79.05;98647.91;5111297;28;20183;-87
2023/02/06 08:13:35;;;;;;;31.67;20.13;;;;;;;1.42;78.96;98651.19;5109896;28;20126;-88
2023/02/06 08:16:07;;;;;;;33.83;19.85;;;;;;;1.48;80.20;98649.22;5109115;28;20044;-89
2023/02/06 08:18:35;;;;;;;32.55;19.40;;;;;;;1.52;79.64;98648.97;5107547;28;20044;-89
2023/02/06 08:21:06;;;;;;;31.95;20.13;;;;;;;1.53;79.13;98658.38;5107363;28;20067;-87
2023/02/06 08:23:35;;;;;;;28.20;19.08;;;;;;;1.49;78.59;98651.72;5107169;28;20052;-89
2023/02/06 08:26:04;;;;;;;30.90;19.98;;;;;;;1.50;78.45;98645.66;5104845;28;20071;-85
2023/02/06 08:28:33;;;;;;;26.40;17.23;;;;;;;1.54;77.36;98651.50;5105094;28;20074;-89
2023/02/06 08:31:08;;;;;;;27.45;18.40;;;;;;;1.60;77.80;98648.63;5105423;28;20056;-85
2023/02/06 08:33:36;;;;;;;26.23;17.23;;;;;;;1.63;78.03;98646.72;5104410;28;20048;-85
2023/02/06 08:36:05;;;;;;;26.80;18.25;;;;;;;1.63;77.51;98649.28;5104928;28;20064;-88
2023/02/06 08:38:33;;;;;;;22.88;14.90;;;;;;;1.65;77.04;98652.63;5102900;28;20054;-83
2023/02/06 08:41:02;;;;;;;21.85;14.75;;;;;;;1.61;75.57;98651.09;5105323;28;20067;-87
2023/02/06 08:43:30;;;;;;;25.83;15.50;;;;;;;1.62;75.98;98657.09;5104503;28;20076;-84
2023/02/06 08:45:59;;;;;;;20.10;13.43;;;;;;;1.62;75.19;98657.09;5101695;28;20044;-83
2023/02/06 08:48:27;;;;;;;19.98;13.65;;;;;;;1.58;74.60;98658.97;5101160;28;20047;-83
2023/02/06 08:51:03;;;;;;;18.83;12.30;;;;;;;1.53;73.02;98648.09;5101714;28;20051;-83
2023/02/06 08:53:31;;;;;;;20.88;13.00;;;;;;;1.50;73.96;98653.38;5102629;28;20493;-86
2023/02/06 08:56:02;;;;;;;18.05;12.48;;;;;;;1.47;73.89;98650.13;5102341;28;20058;-85
2023/02/06 08:58:31;;;;;;;18.25;12.20;;;;;;;1.40;73.39;98647.84;5101025;28;20146;-84
2023/02/06 09:00:59;;;;;;;18.95;11.68;;;;;;;1.38;73.18;98649.66;5102410;28;20071;-83
2023/02/06 09:03:27;;;;;;;16.63;10.60;;;;;;;1.34;72.58;98647.31;5101703;28;20101;-85
2023/02/06 09:06:00;;;;;;;18.92;12.65;;;;;;;1.28;72.58;98647.59;5104092;28;20063;-86
2023/02/06 09:08:36;;;;;;;17.65;11.77;;;;;;;1.25;72.74;98646.00;5106729;28;20048;-88
2023/02/06 09:11:07;;;;;;;17.10;11.73;;;;;;;1.25;72.92;98653.72;5106209;28;20461;-88
2023/02/06 09:13:35;;;;;;;15.80;10.25;;;;;;;1.21;72.58;98649.63;5104960;28;20087;-88
2023/02/06 09:16:04;;;;;;;14.48;10.45;;;;;;;1.19;72.45;98651.44;5105171;28;20048;-86
2023/02/06 09:18:32;;;;;;;13.75;10.00;;;;;;;1.20;72.09;98646.22;5104795;28;20065;-86
2023/02/06 09:21:05;;;;;;;12.63;9.73;;;;;;;1.16;71.38;98644.72;5104246;28;20070;-84
2023/02/06 09:23:32;;;;;;;;;;;;;;;1.18;71.42;98637.75;5104374;28;20143;-88
2023/02/06 09:26:00;;;;;;;12.23;8.65;;;;;;;1.19;72.22;98639.41;5104696;28;20357;-84
2023/02/06 09:28:30;;;;;;;15.52;9.27;;;;;;;1.17;71.18;98630.94;5103161;28;20089;-85
2023/02/06 09:30:58;;;;;;;13.90;9.18;;;;;;;1.17;71.57;98619.84;5103597;28;20113;-85
2023/02/06 09:33:26;;;;;;;13.20;9.40;;;;;;;1.16;72.14;98621.56;5102954;28;20051;-82
2023/02/06 09:36:04;;;;;;;12.70;10.10;;;;;;;1.23;75.67;98620.38;5102743;28;20477;-85
2023/02/06 09:38:33;;;;;;;13.63;8.98;;;;;;;1.30;73.48;98614.94;5101047;28;20409;-86
2023/02/06 09:41:03;;;;;;;13.30;9.55;;;;;;;1.34;72.26;98611.31;5101804;28;20074;-83
2023/02/06 09:43:34;;;;;;;11.80;8.80;;;;;;;1.36;71.08;98609.50;5101220;28;20047;-86
2023/02/06 09:46:04;;;;;;;12.75;8.80;;;;;;;1.37;70.73;98603.44;5100780;28;20146;-90
2023/02/06 09:48:34;;;;;;;11.32;7.90;;;;;;;1.38;70.22;98605.94;5100399;28;20524;-81
2023/02/06 09:51:12;;;;;;;12.77;8.85;;;;;;;1.41;69.65;98607.53;5101053;28;20108;-83
2023/02/06 09:53:47;;;;;;;18.75;8.48;;;;;;;1.45;70.53;98598.75;5100715;28;20052;-87
2023/02/06 09:56:25;;;;;;;11.30;8.20;;;;;;;1.48;73.01;98597.78;5099690;28;20109;-86
2023/02/06 09:59:03;;;;;;;14.18;8.65;;;;;;;1.48;70.28;98598.59;5102613;28;20070;-85
2023/02/06 10:01:38;;;;;;;10.98;8.30;;;;;;;1.57;73.28;98598.13;5104813;28;20055;-85
2023/02/06 10:04:27;;;;;;;14.73;9.52;;;;;;;1.68;73.72;98591.63;5107571;28;20051;-88
2023/02/06 10:07:06;;;;;;;13.95;8.48;;;;;;;1.74;73.44;98594.72;5107457;28;20557;-85
2023/02/06 10:09:40;;;;;;;12.18;7.85;;;;;;;1.76;71.56;98602.38;5105349;28;20048;-86
2023/02/06 10:12:14;;;;;;;14.18;8.10;;;;;;;1.76;70.78;98586.94;5104854;28;20056;-87
2023/02/06 10:14:47;;;;;;;12.45;8.15;;;;;;;1.77;71.66;98583.44;5104534;28;20572;-86
2023/02/06 10:17:21;;;;;;;13.27;8.90;;;;;;;1.79;70.16;98589.34;5105183;28;20056;-88
2023/02/06 10:19:56;;;;;;;14.35;7.30;;;;;;;1.77;69.82;98593.72;5103679;28;20056;-83
2023/02/06 10:22:31;;;;;;;10.77;7.53;;;;;;;1.71;68.96;98592.31;5104789;28;20051;-84
2023/02/06 10:25:21;;;;;;;9.68;6.68;;;;;;;1.65;68.92;98590.88;5103869;28;20417;-82
2023/02/06 10:27:55;;;;;;;11.02;7.03;;;;;;;1.61;69.81;98594.50;5104549;28;20079;-89
2023/02/06 10:30:35;;;;;;;12.63;8.38;;;;;;;1.63;69.62;98581.56;5104022;28;20052;-83
2023/02/06 10:33:09;;;;;;;15.43;8.48;;;;;;;1.61;70.25;98573.94;5103233;28;20142;-87
2023/02/06 10:35:59;;;;;;;10.30;8.02;;;;;;;1.64;69.65;98562.69;5102785;28;20066;-86
2023/02/06 10:38:41;;;;;;;11.38;8.15;;;;;;;1.62;69.62;98562.75;5102229;28;20408;-83
2023/02/06 10:41:14;;;;;;;11.25;7.72;;;;;;;1.60;69.66;98559.41;5105973;28;20115;-86
2023/02/06 10:43:47;;;;;;;9.80;7.60;;;;;;;1.62;70.07;98555.03;5111362;28;20267;-86
2023/02/06 10:46:36;;;;;;;14.00;7.93;;;;;;;1.67;69.54;98546.25;5107166;28;20064;-89
2023/02/06 10:49:12;;;;;;;10.20;7.30;;;;;;;1.69;69.17;98549.56;5107559;28;20067;-91
2023/02/06 10:51:44;;;;;;;12.88;8.50;;;;;;;1.68;68.91;98545.31;5106773;28;20058;-89
2023/02/06 10:54:18;;;;;;;13.40;7.97;;;;;;;1.67;68.58;98543.69;5107463;28;20075;-88
2023/02/06 10:56:47;;;;;;;12.27;7.68;;;;;;;1.68;69.97;98547.91;5106766;28;20139;-88
2023/02/06 10:59:23;;;;;;;12.15;7.57;;;;;;;1.72;68.87;98551.97;5105711;28;20505;-89
2023/02/06 11:02:02;;;;;;;10.38;7.72;;;;;;;1.77;68.91;98548.28;5106461;28;20058;-87
2023/02/06 11:04:35;;;;;;;13.73;7.38;;;;;;;1.75;68.13;98554.38;5106815;28;20058;-90
2023/02/06 11:07:08;;;;;;;12.25;8.43;;;;;;;1.69;68.38;98545.25;5106205;28;20055;-89
2023/02/06 11:09:36;;;;;;;;;;;;;;;1.72;68.88;98539.13;5105875;28;20505;-88
2023/02/06 11:12:05;;;;;;;12.70;7.47;;;;;;;1.71;68.97;98540.03;5105368;28;19949;-86
2023/02/06 11:14:36;;;;;;;9.68;6.68;;;;;;;1.67;68.06;98530.81;5105978;28;20052;-87
2023/02/06 11:17:05;;;;;;;11.93;8.02;;;;;;;1.61;67.88;98522.47;5105716;28;20099;-88
2023/02/06 11:19:37;;;;;;;13.32;7.38;;;;;;;1.58;68.13;98530.38;5104767;28;20153;-86
2023/02/06 11:22:11;;;;;;;12.75;8.23;;;;;;;1.54;67.89;98525.47;5105177;28;20048;-85
2023/02/06 11:24:58;;;;;;;13.70;7.72;;;;;;;1.53;67.52;98524.63;5105359;28;20487;-86
2023/02/06 11:27:28;;;;;;;15.48;9.73;;;;;;;1.52;67.96;98522.94;5106914;28;20103;-85
2023/02/06 11:29:56;;;;;;;15.20;8.38;;;;;;;1.49;67.96;98511.97;5106136;28;20497;-87
2023/02/06 11:32:34;;;;;;;15.10;7.90;;;;;;;1.43;67.64;98508.81;5105132;28;20074;-88
2023/02/06 11:35:06;;;;;;;13.27;7.97;;;;;;;1.43;67.86;98508.00;5109701;28;20048;-88
2023/02/06 11:37:36;;;;;;;12.15;7.30;;;;;;;1.46;68.47;98512.16;5107202;28;20067;-89
2023/02/06 11:40:25;;;;;;;12.77;8.25;;;;;;;1.52;67.45;98520.38;5106084;28;20055;-86
2023/02/06 11:43:16;;;;;;;14.93;9.60;;;;;;;1.55;67.18;98514.25;5106561;28;20563;-84